Time;durP1;ratioP1;P1;durP2;ratioP2;P2;SDS_P1;SDS_P2;PMS_P1;PMS_P2;Temp;Humidity;BMP_temperature;BMP_pressure;BME280_temperature;BME280_humidity;BME280_pressure;Samples;Min_cycle;Max_cycle;Signal;HPM_P1;HPM_P2
2022/10/10 00:00:29;;;;;;;12.27;7.00;;;;;;;7.18;67.76;99383.25;5064424;28;20025;-78
2022/10/10 00:02:55;;;;;;;14.23;7.28;;;;;;;7.17;68.43;99380.78;5062574;28;20029;-78
2022/10/10 00:05:20;;;;;;;11.15;6.50;;;;;;;7.17;68.02;99378.88;5063387;28;20027;-78
2022/10/10 00:07:47;;;;;;;12.18;6.90;;;;;;;7.20;67.97;99377.53;5063828;28;20035;-78
2022/10/10 00:10:12;;;;;;;14.45;6.97;;;;;;;7.23;68.26;99374.31;5062281;28;20021;-79
2022/10/10 00:12:37;;;;;;;11.95;6.95;;;;;;;7.27;68.06;99370.00;5067988;28;20035;-79
2022/10/10 00:15:03;;;;;;;12.30;6.47;;;;;;;7.25;68.39;99373.00;5073629;28;20531;-79
2022/10/10 00:17:29;;;;;;;11.23;6.68;;;;;;;7.27;67.89;99372.75;5073976;28;20044;-79
2022/10/10 00:19:54;;;;;;;9.88;6.40;;;;;;;7.26;68.03;99369.19;5073399;28;20058;-79
2022/10/10 00:22:20;;;;;;;9.55;6.32;;;;;;;7.26;67.79;99360.19;5073681;28;20111;-79
2022/10/10 00:24:45;;;;;;;9.40;6.43;;;;;;;7.25;68.11;99356.63;5072880;28;20529;-78
2022/10/10 00:27:10;;;;;;;11.50;6.15;;;;;;;7.26;68.12;99371.09;5072837;28;20044;-79
2022/10/10 00:29:36;;;;;;;13.15;6.40;;;;;;;7.26;68.13;99360.19;5073374;28;20033;-79
2022/10/10 00:32:01;;;;;;;11.90;6.50;;;;;;;7.24;68.02;99362.31;5068859;28;20486;-79
2022/10/10 00:34:27;;;;;;;12.13;6.32;;;;;;;7.21;67.97;99360.09;5047174;28;20050;-79
2022/10/10 00:36:52;;;;;;;11.23;6.15;;;;;;;7.20;68.09;99359.28;5072838;28;20020;-79
2022/10/10 00:39:17;;;;;;;10.65;6.55;;;;;;;7.20;68.19;99361.19;5072928;28;20529;-78
2022/10/10 00:41:43;;;;;;;11.38;6.53;;;;;;;7.18;68.04;99355.97;5069963;28;20060;-78
2022/10/10 00:44:13;;;;;;;13.40;6.32;;;;;;;7.18;68.11;99355.97;5063236;28;20122;-79
2022/10/10 00:46:39;;;;;;;8.57;6.15;;;;;;;7.19;67.98;99354.91;5062107;28;20394;-79
2022/10/10 00:49:11;;;;;;;10.63;6.65;;;;;;;7.21;68.08;99360.09;5061140;28;20013;-78
2022/10/10 00:51:37;;;;;;;9.00;6.40;;;;;;;7.22;68.02;99351.69;5061981;28;20506;-79
2022/10/10 00:54:07;;;;;;;10.70;6.60;;;;;;;7.21;68.03;99354.66;5061501;28;20052;-78
2022/10/10 00:56:38;;;;;;;10.13;6.75;;;;;;;7.22;68.24;99348.94;5067095;28;20082;-78
2022/10/10 00:59:07;;;;;;;9.82;6.63;;;;;;;7.26;68.12;99350.09;5072251;28;20020;-78
2022/10/10 01:01:33;;;;;;;12.25;7.43;;;;;;;7.27;68.15;99348.19;5072551;28;20133;-78
2022/10/10 01:04:00;;;;;;;12.68;7.03;;;;;;;7.23;68.04;99342.41;5072528;28;20501;-78
2022/10/10 01:06:27;;;;;;;14.00;7.07;;;;;;;7.26;68.14;99349.25;5072386;28;20099;-78
2022/10/10 01:08:53;;;;;;;13.32;7.57;;;;;;;7.30;68.56;99343.06;5072205;28;20600;-78
2022/10/10 01:11:31;;;;;;;14.57;8.80;;;;;;;7.33;67.91;99346.38;5072304;28;20103;-78
2022/10/10 01:14:16;;;;;;;14.00;9.15;;;;;;;7.34;68.34;99345.25;5072053;28;20072;-78
2022/10/10 01:16:41;;;;;;;12.82;8.90;;;;;;;7.35;68.09;99341.44;5072221;28;20052;-78
2022/10/10 01:19:15;;;;;;;15.25;8.52;;;;;;;7.29;68.01;99340.56;5072073;28;20063;-78
2022/10/10 01:22:07;;;;;;;12.68;8.15;;;;;;;7.23;68.07;99336.97;5071980;28;20027;-78
2022/10/10 01:25:12;;;;;;;13.85;8.27;;;;;;;7.25;68.10;99337.53;5071939;28;20025;-78
2022/10/10 01:27:44;;;;;;;13.07;8.40;;;;;;;7.28;68.05;99330.72;5072109;28;20048;-78
2022/10/10 01:30:13;;;;;;;15.85;9.45;;;;;;;7.28;68.24;99331.56;5071867;28;20024;-78
2022/10/10 01:32:50;;;;;;;16.90;10.75;;;;;;;7.29;68.25;99332.38;5071650;28;20048;-78
2022/10/10 01:35:24;;;;;;;17.17;10.20;;;;;;;7.29;68.24;99335.13;5071839;28;20273;-78
2022/10/10 01:38:06;;;;;;;13.80;8.18;;;;;;;7.26;67.86;99328.28;5071103;28;20051;-78
2022/10/10 01:40:46;;;;;;;12.90;8.68;;;;;;;7.24;68.12;99332.31;5071651;28;20169;-78
2022/10/10 01:43:12;;;;;;;13.23;7.80;;;;;;;7.22;68.22;99316.22;5071624;28;20021;-78
2022/10/10 01:45:43;;;;;;;15.25;7.78;;;;;;;7.22;68.23;99320.81;5071664;28;20027;-78
2022/10/10 01:48:08;;;;;;;11.45;7.90;;;;;;;7.20;67.92;99317.53;5071537;28;20678;-78
2022/10/10 01:50:51;;;;;;;13.60;7.93;;;;;;;7.19;67.93;99316.72;5071402;28;20027;-78
2022/10/10 01:53:24;;;;;;;13.15;7.40;;;;;;;7.18;68.46;99312.34;5053430;28;20393;-79
2022/10/10 01:56:17;;;;;;;11.85;7.85;;;;;;;7.15;68.21;99313.66;5071104;28;20758;-78
2022/10/10 01:59:07;;;;;;;12.43;7.47;;;;;;;7.15;68.19;99313.66;5071725;28;20533;-78
2022/10/10 02:01:44;;;;;;;11.63;7.28;;;;;;;7.11;68.39;99308.97;5072111;28;20040;-78
2022/10/10 02:04:31;;;;;;;13.27;7.55;;;;;;;7.08;68.28;99304.00;5071731;28;20036;-78
2022/10/10 02:07:04;;;;;;;15.07;7.38;;;;;;;7.06;68.29;99307.00;5053564;28;20393;-78
2022/10/10 02:09:39;;;;;;;13.25;7.60;;;;;;;7.06;68.19;99308.88;5053770;28;20048;-78
2022/10/10 02:12:08;;;;;;;12.70;7.63;;;;;;;7.05;68.04;99305.34;5053515;28;20367;-78
2022/10/10 02:14:39;;;;;;;12.02;7.78;;;;;;;7.02;68.05;99300.41;5071106;28;20028;-78
2022/10/10 02:17:09;;;;;;;11.65;7.38;;;;;;;7.03;68.29;99306.66;5071140;28;20073;-79
2022/10/10 02:19:37;;;;;;;12.32;8.18;;;;;;;7.03;68.48;99304.78;5053242;28;20028;-78
2022/10/10 02:22:04;;;;;;;14.32;7.85;;;;;;;6.99;68.16;99300.91;5052930;28;20046;-79
2022/10/10 02:24:30;;;;;;;13.10;7.43;;;;;;;6.99;68.48;99301.72;5071834;28;20036;-78
2022/10/10 02:27:04;;;;;;;12.40;7.63;;;;;;;6.97;68.57;99298.41;5071496;28;20053;-79
2022/10/10 02:29:34;;;;;;;9.40;6.97;;;;;;;6.97;68.37;99301.13;5071469;28;20031;-79
2022/10/10 02:32:09;;;;;;;13.05;7.97;;;;;;;6.94;68.47;99290.72;5071839;28;20024;-78
2022/10/10 02:34:37;;;;;;;11.63;8.07;;;;;;;6.93;68.41;99299.16;5071356;28;20103;-78
2022/10/10 02:37:07;;;;;;;13.75;8.38;;;;;;;6.94;68.55;99293.44;5071402;28;20021;-78
2022/10/10 02:39:35;;;;;;;;;;;;;;;6.95;68.22;99294.28;5072154;28;20035;-78
2022/10/10 02:42:04;;;;;;;12.82;7.50;;;;;;;6.95;68.13;99289.66;5071484;28;19913;-78
2022/10/10 02:44:30;;;;;;;14.20;8.48;;;;;;;6.93;68.38;99289.06;5090630;28;20024;-78
2022/10/10 02:46:56;;;;;;;12.57;7.78;;;;;;;6.92;68.49;99286.63;5091565;28;20024;-78
2022/10/10 02:49:26;;;;;;;12.18;7.40;;;;;;;6.87;68.69;99292.00;5093880;28;20681;-78
2022/10/10 02:51:52;;;;;;;11.18;7.50;;;;;;;6.83;68.52;99281.59;5096133;28;20032;-78
2022/10/10 02:54:17;;;;;;;15.00;7.55;;;;;;;6.82;68.57;99290.84;5095783;28;20038;-78
2022/10/10 02:56:43;;;;;;;13.73;7.80;;;;;;;6.80;68.67;99279.34;5095712;28;20022;-78
2022/10/10 02:59:08;;;;;;;13.52;7.85;;;;;;;6.80;68.80;99282.09;5095402;28;20495;-78
2022/10/10 03:01:33;;;;;;;12.63;7.47;;;;;;;6.80;68.61;99284.81;5077428;28;20103;-78
2022/10/10 03:03:59;;;;;;;13.10;7.80;;;;;;;6.79;68.57;99285.88;5095590;28;20457;-78
2022/10/10 03:06:24;;;;;;;12.88;7.72;;;;;;;6.79;68.91;99274.16;5095773;28;20123;-78
2022/10/10 03:08:50;;;;;;;12.65;7.75;;;;;;;6.79;68.78;99276.91;5095556;28;20020;-78
2022/10/10 03:11:15;;;;;;;12.60;7.78;;;;;;;6.79;68.61;99274.97;5077381;28;20381;-78
2022/10/10 03:13:40;;;;;;;11.73;7.85;;;;;;;6.79;68.82;99268.72;5095371;28;20031;-78
2022/10/10 03:16:06;;;;;;;11.52;7.60;;;;;;;6.76;68.94;99270.03;5095192;28;20388;-78
2022/10/10 03:18:31;;;;;;;10.30;7.15;;;;;;;6.76;68.72;99266.50;5095934;28;20031;-79
2022/10/10 03:20:57;;;;;;;12.57;7.68;;;;;;;6.75;68.58;99268.38;5095671;28;20077;-78
2022/10/10 03:23:23;;;;;;;11.40;8.10;;;;;;;6.75;68.61;99262.13;5095705;28;20045;-78
2022/10/10 03:25:49;;;;;;;14.23;8.20;;;;;;;6.72;68.90;99258.00;5095217;28;20146;-79
2022/10/10 03:28:15;;;;;;;12.40;7.65;;;;;;;6.70;69.12;99258.22;5078027;28;20033;-78
2022/10/10 03:30:41;;;;;;;11.77;7.85;;;;;;;6.69;68.80;99255.78;5074187;28;20155;-79
2022/10/10 03:33:07;;;;;;;15.82;7.75;;;;;;;6.68;68.88;99263.13;5073386;28;20071;-79
2022/10/10 03:35:33;;;;;;;11.95;7.93;;;;;;;6.68;68.85;99257.66;5074631;28;20025;-79
2022/10/10 03:37:59;;;;;;;11.82;7.47;;;;;;;6.69;68.92;99251.13;5074847;28;20382;-78
2022/10/10 03:40:26;;;;;;;12.43;7.90;;;;;;;6.68;68.85;99259.56;5074386;28;20056;-79
2022/10/10 03:42:51;;;;;;;12.70;7.82;;;;;;;6.66;68.58;99261.72;5074755;28;20492;-78
2022/10/10 03:45:16;;;;;;;11.90;7.45;;;;;;;6.62;68.65;99261.38;5074902;28;20056;-78
2022/10/10 03:47:42;;;;;;;13.45;8.02;;;;;;;6.62;69.24;99260.56;5074523;28;20028;-78
2022/10/10 03:50:08;;;;;;;11.15;7.22;;;;;;;6.60;68.66;99260.81;5074681;28;20474;-78
2022/10/10 03:52:33;;;;;;;13.40;7.60;;;;;;;6.57;68.53;99255.03;5074477;28;20048;-79
2022/10/10 03:54:59;;;;;;;12.85;8.27;;;;;;;6.57;68.77;99255.03;5074424;28;20024;-79
2022/10/10 03:57:24;;;;;;;15.18;8.25;;;;;;;6.53;68.79;99244.63;5073760;28;20060;-79
2022/10/10 03:59:49;;;;;;;14.82;8.60;;;;;;;6.53;68.85;99254.69;5073987;28;20144;-78
2022/10/10 04:02:15;;;;;;;13.07;8.40;;;;;;;6.52;68.94;99243.00;5074371;28;20084;-79
2022/10/10 04:04:40;;;;;;;13.27;8.85;;;;;;;6.53;69.13;99243.81;5074479;28;20028;-78
2022/10/10 04:07:05;;;;;;;13.23;8.77;;;;;;;6.51;69.03;99241.34;5056456;28;20028;-79
2022/10/10 04:09:31;;;;;;;13.07;7.90;;;;;;;6.48;69.00;99239.09;5074482;28;20535;-79
2022/10/10 04:11:56;;;;;;;14.88;8.18;;;;;;;6.46;68.87;99240.44;5056492;28;20024;-78
2022/10/10 04:14:22;;;;;;;11.73;7.78;;;;;;;6.45;69.09;99244.25;5074286;28;20029;-79
2022/10/10 04:16:47;;;;;;;12.73;7.80;;;;;;;6.46;69.25;99240.44;5074431;28;20067;-79
2022/10/10 04:19:13;;;;;;;13.98;8.23;;;;;;;6.45;69.30;99236.88;5074155;28;20074;-78
2022/10/10 04:21:39;;;;;;;14.77;8.20;;;;;;;6.46;68.92;99238.53;5074472;28;20024;-79
2022/10/10 04:24:04;;;;;;;11.35;7.57;;;;;;;6.46;68.95;99240.44;5074310;28;20078;-79
2022/10/10 04:26:29;;;;;;;11.35;7.30;;;;;;;6.46;68.93;99237.72;5073978;28;20128;-79
2022/10/10 04:28:55;;;;;;;13.93;8.00;;;;;;;6.44;68.74;99239.88;5074061;28;20391;-79
2022/10/10 04:31:20;;;;;;;12.18;7.78;;;;;;;6.43;69.23;99239.03;5073916;28;20052;-78
2022/10/10 04:33:45;;;;;;;11.93;7.60;;;;;;;6.45;69.20;99236.06;5074152;28;20039;-79
2022/10/10 04:36:11;;;;;;;14.30;7.75;;;;;;;6.44;69.33;99237.97;5074114;28;20474;-79
2022/10/10 04:38:36;;;;;;;12.23;7.82;;;;;;;6.42;68.75;99242.03;5074022;28;20032;-79
2022/10/10 04:41:02;;;;;;;13.15;8.65;;;;;;;6.40;68.96;99231.34;5073732;28;20032;-79
2022/10/10 04:43:27;;;;;;;10.40;7.35;;;;;;;6.40;69.16;99237.66;5073803;28;20056;-78
2022/10/10 04:45:56;;;;;;;12.07;7.50;;;;;;;6.38;69.07;99239.78;5073594;28;20391;-79
2022/10/10 04:48:21;;;;;;;12.75;8.70;;;;;;;6.35;68.96;99240.28;5073694;28;20075;-79
2022/10/10 04:50:51;;;;;;;21.33;15.02;;;;;;;6.33;68.97;99231.53;5073798;28;20048;-79
2022/10/10 04:53:16;;;;;;;;;;;;;;;6.34;68.84;99230.47;5074178;28;20486;-78
2022/10/10 04:55:43;;;;;;;13.85;9.10;;;;;;;6.34;68.79;99237.78;5055818;28;19913;-78
2022/10/10 04:58:08;;;;;;;19.15;9.20;;;;;;;6.31;68.88;99232.88;5073561;28;20020;-79
2022/10/10 05:00:34;;;;;;;12.90;9.40;;;;;;;6.31;69.20;99235.59;5073181;28;20043;-78
2022/10/10 05:02:59;;;;;;;14.05;9.25;;;;;;;6.30;69.23;99229.31;5072346;28;20021;-79
2022/10/10 05:05:24;;;;;;;13.40;9.57;;;;;;;6.30;69.48;99237.47;5073107;28;20470;-79
2022/10/10 05:07:50;;;;;;;15.88;8.90;;;;;;;6.30;68.99;99234.75;5084461;28;20529;-79
2022/10/10 05:10:15;;;;;;;13.57;8.63;;;;;;;6.30;69.22;99223.03;5093410;28;20050;-79
2022/10/10 05:12:41;;;;;;;20.38;9.25;;;;;;;6.28;69.38;99225.19;5093534;28;20027;-79
2022/10/10 05:15:06;;;;;;;16.95;9.27;;;;;;;6.28;69.15;99220.56;5093408;28;20030;-79
2022/10/10 05:17:32;;;;;;;15.70;9.10;;;;;;;6.28;69.21;99220.56;5093952;28;20039;-79
2022/10/10 05:19:57;;;;;;;14.27;9.45;;;;;;;6.27;69.21;99218.09;5093761;28;20031;-78
2022/10/10 05:22:23;;;;;;;13.90;8.65;;;;;;;6.27;69.50;99210.72;5093743;28;20426;-79
2022/10/10 05:24:48;;;;;;;15.48;9.55;;;;;;;6.28;68.99;99220.56;5093307;28;20024;-79
2022/10/10 05:27:14;;;;;;;13.23;9.07;;;;;;;6.27;69.36;99215.38;5093640;28;20032;-78
2022/10/10 05:29:39;;;;;;;13.43;8.48;;;;;;;6.29;69.16;99213.22;5093184;28;20103;-79
2022/10/10 05:32:04;;;;;;;15.63;9.27;;;;;;;6.28;69.15;99217.03;5093102;28;20029;-79
2022/10/10 05:34:30;;;;;;;14.13;9.63;;;;;;;6.28;69.18;99212.38;5092866;28;20031;-78
2022/10/10 05:36:55;;;;;;;18.10;10.93;;;;;;;6.31;69.49;99221.97;5093370;28;20170;-78
2022/10/10 05:39:21;;;;;;;18.45;9.70;;;;;;;6.34;69.45;99219.56;5074882;28;20031;-79
2022/10/10 05:41:47;;;;;;;19.05;9.85;;;;;;;6.34;69.33;99221.44;5093058;28;20028;-79
2022/10/10 05:44:12;;;;;;;19.00;12.10;;;;;;;6.37;69.46;99218.22;5092705;28;20024;-79
2022/10/10 05:46:37;;;;;;;17.25;11.43;;;;;;;6.37;69.83;99216.34;5092906;28;20507;-79
2022/10/10 05:49:03;;;;;;;18.13;11.27;;;;;;;6.42;69.95;99218.31;5073874;28;20036;-79
2022/10/10 05:51:28;;;;;;;14.57;9.20;;;;;;;6.46;69.48;99211.28;5092697;28;20035;-78
2022/10/10 05:53:54;;;;;;;15.70;8.50;;;;;;;6.48;69.93;99209.13;5092302;28;20028;-78
2022/10/10 05:56:20;;;;;;;14.20;9.75;;;;;;;6.54;69.79;99213.59;5092458;28;20073;-78
2022/10/10 05:58:45;;;;;;;14.25;9.18;;;;;;;6.58;69.90;99218.53;5092744;28;20016;-78
2022/10/10 06:01:11;;;;;;;13.23;8.70;;;;;;;6.61;69.71;99209.84;5073781;28;20493;-78
2022/10/10 06:03:36;;;;;;;12.68;8.80;;;;;;;6.66;70.00;99208.03;5088478;28;20042;-79
2022/10/10 06:06:02;;;;;;;18.63;9.80;;;;;;;6.69;69.73;99212.16;5071834;28;20027;-78
2022/10/10 06:08:29;;;;;;;14.02;8.82;;;;;;;6.74;69.81;99209.47;5072183;28;20063;-78
2022/10/10 06:11:04;;;;;;;15.60;8.80;;;;;;;6.79;70.20;99214.19;5066429;28;20537;-78
2022/10/10 06:13:30;;;;;;;16.08;9.85;;;;;;;6.81;69.74;99214.75;5036305;28;20127;-78
2022/10/10 06:15:56;;;;;;;15.23;9.23;;;;;;;6.85;69.94;99213.19;5056921;28;20025;-77
2022/10/10 06:18:22;;;;;;;15.00;9.93;;;;;;;6.88;69.91;99223.59;5055406;28;20039;-77
2022/10/10 06:20:47;;;;;;;17.60;10.00;;;;;;;6.94;69.64;99222.53;5061103;28;20449;-78
2022/10/10 06:23:13;;;;;;;16.02;9.68;;;;;;;6.99;69.96;99216.34;5058461;28;20017;-76
2022/10/10 06:25:38;;;;;;;13.10;9.40;;;;;;;7.05;69.86;99214.50;5043240;28;20098;-76
2022/10/10 06:28:04;;;;;;;14.70;9.48;;;;;;;7.11;69.91;99210.75;5046302;28;20070;-76
2022/10/10 06:30:29;;;;;;;14.35;9.20;;;;;;;7.20;69.94;99211.97;5071190;28;20094;-77
2022/10/10 06:32:54;;;;;;;14.15;8.55;;;;;;;7.25;69.94;99212.03;5071450;28;20028;-78
2022/10/10 06:35:20;;;;;;;14.60;9.55;;;;;;;7.33;70.06;99207.19;5071583;28;20466;-80
2022/10/10 06:37:45;;;;;;;15.50;9.50;;;;;;;7.40;70.01;99208.63;5053549;28;20028;-77
2022/10/10 06:40:11;;;;;;;15.38;8.90;;;;;;;7.48;70.01;99206.53;5072070;28;20021;-77
2022/10/10 06:42:36;;;;;;;17.42;10.07;;;;;;;7.54;70.03;99206.31;5071250;28;20106;-79
2022/10/10 06:45:02;;;;;;;20.23;10.90;;;;;;;7.59;70.25;99210.97;5071163;28;20097;-76
2022/10/10 06:47:29;;;;;;;15.65;9.93;;;;;;;7.63;70.08;99209.41;5070761;28;20115;-78
2022/10/10 06:49:55;;;;;;;16.42;10.77;;;;;;;7.71;69.76;99216.31;5070054;28;20072;-78
2022/10/10 06:52:21;;;;;;;18.20;11.55;;;;;;;7.77;70.11;99211.72;5071229;28;20017;-77
2022/10/10 06:54:46;;;;;;;16.70;12.35;;;;;;;7.86;69.95;99215.63;5070640;28;20728;-77
2022/10/10 06:57:11;;;;;;;16.10;11.93;;;;;;;7.93;70.43;99213.50;5069942;28;20029;-80
2022/10/10 06:59:37;;;;;;;14.35;11.55;;;;;;;8.01;70.11;99209.47;5060049;28;20017;-76
2022/10/10 07:02:03;;;;;;;18.02;13.02;;;;;;;8.10;70.34;99218.00;5060111;28;20028;-78
2022/10/10 07:04:28;;;;;;;17.75;12.98;;;;;;;8.17;70.73;99216.69;5043186;28;20025;-77
2022/10/10 07:06:53;;;;;;;17.25;12.93;;;;;;;8.27;70.02;99215.94;5059605;28;20032;-80
2022/10/10 07:09:19;;;;;;;17.17;11.55;;;;;;;8.35;70.18;99215.44;5060369;28;20025;-78
2022/10/10 07:11:45;;;;;;;18.45;11.15;;;;;;;8.44;70.21;99210.31;5060612;28;20027;-78
2022/10/10 07:14:11;;;;;;;13.32;9.77;;;;;;;8.54;70.60;99216.97;5059113;28;20083;-77
2022/10/10 07:16:36;;;;;;;21.27;12.95;;;;;;;8.60;70.62;99213.16;5060459;28;20107;-79
2022/10/10 07:19:02;;;;;;;21.55;14.27;;;;;;;8.69;70.25;99222.53;5060389;28;20440;-77
2022/10/10 07:21:27;;;;;;;28.85;17.73;;;;;;;8.75;69.98;99216.00;5058795;28;20029;-78
2022/10/10 07:23:53;;;;;;;35.65;18.33;;;;;;;8.81;70.13;99219.56;5060916;28;20020;-78
2022/10/10 07:26:21;;;;;;;19.33;10.77;;;;;;;8.88;70.16;99211.13;5062362;28;20418;-79
2022/10/10 07:28:49;;;;;;;19.77;11.02;;;;;;;8.93;70.30;99211.97;5067062;28;20063;-80
2022/10/10 07:31:14;;;;;;;22.73;12.00;;;;;;;9.01;69.58;99212.56;5059220;28;20021;-78
2022/10/10 07:33:43;;;;;;;26.95;15.98;;;;;;;9.06;69.71;99207.13;5060629;28;20091;-81
2022/10/10 07:36:09;;;;;;;18.98;13.85;;;;;;;9.11;70.20;99211.78;5062589;28;20052;-79
2022/10/10 07:38:35;;;;;;;16.65;11.65;;;;;;;9.19;69.81;99209.31;5062572;28;20021;-79
2022/10/10 07:41:10;;;;;;;12.90;10.25;;;;;;;9.27;69.57;99209.91;5044609;28;20048;-80
2022/10/10 07:43:36;;;;;;;14.70;8.70;;;;;;;9.35;69.77;99204.75;5055100;28;20032;-81
2022/10/10 07:46:02;;;;;;;11.65;8.15;;;;;;;9.45;69.71;99212.16;5065019;28;20355;-79
2022/10/10 07:48:29;;;;;;;13.40;8.38;;;;;;;9.56;69.98;99203.97;5062705;28;20032;-79
2022/10/10 07:50:54;;;;;;;11.73;7.30;;;;;;;9.63;69.92;99197.13;5057200;28;20025;-80
2022/10/10 07:53:20;;;;;;;12.27;8.32;;;;;;;9.73;69.43;99203.72;5054066;28;20063;-69
2022/10/10 07:55:45;;;;;;;16.08;9.05;;;;;;;9.83;70.03;99203.69;5056076;28;20029;-70
2022/10/10 07:58:11;;;;;;;13.90;10.10;;;;;;;9.94;70.02;99202.63;5071914;28;20024;-70
2022/10/10 08:00:40;;;;;;;13.50;8.60;;;;;;;10.03;69.82;99204.81;5055316;28;20028;-70
2022/10/10 08:03:07;;;;;;;13.75;9.57;;;;;;;10.10;69.97;99195.22;5065747;28;20021;-70
2022/10/10 08:05:33;;;;;;;12.40;8.35;;;;;;;10.21;69.96;99196.03;5071333;28;20115;-70
2022/10/10 08:07:58;;;;;;;14.82;9.18;;;;;;;10.30;69.89;99188.09;5072172;28;20028;-70
2022/10/10 08:10:24;;;;;;;11.77;7.95;;;;;;;10.40;69.81;99192.75;5072043;28;20470;-70
2022/10/10 08:12:49;;;;;;;13.50;9.13;;;;;;;10.50;69.29;99197.38;5071173;28;20499;-71
2022/10/10 08:15:15;;;;;;;13.13;8.77;;;;;;;10.60;69.22;99191.09;5065483;28;20550;-71
2022/10/10 08:17:40;;;;;;;17.75;11.27;;;;;;;10.71;69.74;99200.91;5068896;28;20485;-70
2022/10/10 08:20:06;;;;;;;11.15;6.75;;;;;;;10.83;69.90;99187.69;5059757;28;20063;-70
2022/10/10 08:22:31;;;;;;;10.65;6.82;;;;;;;10.92;69.29;99184.38;5071420;28;20031;-72
2022/10/10 08:24:57;;;;;;;10.55;6.72;;;;;;;11.01;68.71;99189.00;5055825;28;20446;-70
2022/10/10 08:27:22;;;;;;;10.40;6.38;;;;;;;11.11;69.75;99177.16;5050681;28;20091;-70
2022/10/10 08:29:48;;;;;;;9.70;6.45;;;;;;;11.21;69.06;99181.75;5049715;28;20025;-70
2022/10/10 08:32:13;;;;;;;11.95;7.75;;;;;;;11.32;69.07;99179.78;5049308;28;20032;-70
2022/10/10 08:34:39;;;;;;;11.50;6.47;;;;;;;11.41;69.65;99172.56;5049962;28;20020;-70
2022/10/10 08:37:04;;;;;;;10.00;6.72;;;;;;;11.52;69.32;99165.13;5066784;28;20028;-70
2022/10/10 08:39:30;;;;;;;9.85;6.15;;;;;;;11.63;68.94;99168.59;5070223;28;20511;-70
2022/10/10 08:42:01;;;;;;;11.20;6.50;;;;;;;11.72;68.92;99168.81;5070858;28;20024;-70
2022/10/10 08:44:39;;;;;;;10.60;6.07;;;;;;;11.83;68.52;99175.03;5072879;28;20078;-70
2022/10/10 08:47:14;;;;;;;10.98;6.03;;;;;;;11.91;68.97;99175.25;5072461;28;20034;-70
2022/10/10 08:49:57;;;;;;;9.52;5.80;;;;;;;12.01;68.63;99176.31;5073125;28;20038;-70
2022/10/10 08:52:41;;;;;;;10.00;5.80;;;;;;;12.12;68.73;99168.81;5055266;28;20496;-71
2022/10/10 08:55:15;;;;;;;11.13;6.22;;;;;;;12.23;68.15;99169.50;5072921;28;20039;-70
2022/10/10 08:58:02;;;;;;;10.52;5.80;;;;;;;12.32;67.94;99168.59;5055450;28;20378;-70
2022/10/10 09:00:32;;;;;;;8.50;5.22;;;;;;;12.40;68.09;99169.91;5072707;28;20033;-70
2022/10/10 09:03:00;;;;;;;9.00;5.22;;;;;;;12.52;68.46;99169.50;5073201;28;20082;-69
2022/10/10 09:05:54;;;;;;;8.88;5.53;;;;;;;12.61;67.54;99162.25;5072641;28;20017;-70
2022/10/10 09:08:36;;;;;;;7.75;5.32;;;;;;;12.72;67.60;99164.88;5037301;28;20123;-70
2022/10/10 09:11:16;;;;;;;9.10;5.60;;;;;;;12.82;67.58;99162.00;5072553;28;20029;-70
2022/10/10 09:13:59;;;;;;;10.35;6.03;;;;;;;12.92;67.73;99161.03;5072446;28;20024;-69
2022/10/10 09:16:45;;;;;;;7.72;5.55;;;;;;;13.01;67.80;99151.03;5072197;28;20036;-70
2022/10/10 09:19:37;;;;;;;11.23;5.93;;;;;;;13.16;67.74;99151.94;5072432;28;20024;-70
2022/10/10 09:22:12;;;;;;;7.93;5.18;;;;;;;13.30;67.83;99144.56;5026969;28;20037;-71
2022/10/10 09:24:51;;;;;;;9.00;5.22;;;;;;;13.39;67.46;99142.78;5054794;28;20016;-70
2022/10/10 09:27:23;;;;;;;10.90;5.97;;;;;;;13.51;67.13;99138.78;5042225;28;20025;-71
2022/10/10 09:29:55;;;;;;;9.73;6.32;;;;;;;13.61;67.00;99135.06;5041032;28;20024;-71
2022/10/10 09:32:30;;;;;;;7.75;5.35;;;;;;;13.73;67.17;99137.34;5036053;28;20085;-70
2022/10/10 09:35:15;;;;;;;9.02;5.43;;;;;;;13.84;66.99;99127.78;5051715;28;20029;-72
2022/10/10 09:37:44;;;;;;;6.95;5.22;;;;;;;13.95;66.85;99131.19;5047119;28;20028;-72
2022/10/10 09:40:27;;;;;;;11.95;6.00;;;;;;;14.05;66.48;99135.72;5051252;28;20029;-73
2022/10/10 09:42:52;;;;;;;10.65;7.20;;;;;;;14.13;66.35;99126.72;5056110;28;20070;-71
2022/10/10 09:45:34;;;;;;;8.23;5.30;;;;;;;14.22;66.08;99122.16;5046388;28;20122;-72
2022/10/10 09:47:59;;;;;;;6.50;5.10;;;;;;;14.29;65.48;99122.56;5048800;28;20033;-71
2022/10/10 09:50:25;;;;;;;7.20;5.45;;;;;;;14.40;65.90;99119.63;5050621;28;20479;-72
2022/10/10 09:52:52;;;;;;;8.25;5.18;;;;;;;14.51;65.59;99126.56;5050472;28;20597;-72
2022/10/10 09:55:33;;;;;;;7.15;5.07;;;;;;;14.61;65.83;99131.09;5049991;28;20359;-72
2022/10/10 09:58:20;;;;;;;6.80;5.20;;;;;;;14.73;65.80;99123.13;5050288;28;20493;-73
2022/10/10 10:00:46;;;;;;;10.40;5.57;;;;;;;14.84;65.81;99112.69;5047460;28;20025;-71
2022/10/10 10:03:17;;;;;;;6.32;4.95;;;;;;;14.95;65.87;99116.06;5051984;28;20029;-72
2022/10/10 10:05:57;;;;;;;9.00;5.25;;;;;;;15.05;65.75;99106.72;5048212;28;20033;-71
2022/10/10 10:08:31;;;;;;;8.65;4.88;;;;;;;15.18;65.69;99099.53;5043475;28;20041;-71
2022/10/10 10:10:57;;;;;;;7.38;4.82;;;;;;;15.28;65.42;99104.81;5046139;28;20040;-70
2022/10/10 10:13:27;;;;;;;7.10;4.50;;;;;;;15.38;64.94;99098.22;5054937;28;20093;-72
2022/10/10 10:16:01;;;;;;;;;;;;;;;15.47;65.07;99101.88;5029538;28;20101;-70
2022/10/10 10:18:27;;;;;;;8.48;4.65;;;;;;;15.57;64.98;99095.28;5045972;28;19966;-70
2022/10/10 10:21:18;;;;;;;6.00;4.50;;;;;;;15.67;64.13;99094.22;5046057;28;20021;-71
2022/10/10 10:23:51;;;;;;;6.20;4.60;;;;;;;15.77;64.28;99093.16;5050356;28;20370;-72
2022/10/10 10:26:28;;;;;;;7.85;5.07;;;;;;;15.87;63.78;99083.81;5062711;28;20486;-71
2022/10/10 10:28:56;;;;;;;7.45;4.90;;;;;;;15.98;63.93;99085.19;5070610;28;20025;-73
2022/10/10 10:31:34;;;;;;;9.13;5.20;;;;;;;16.08;63.75;99086.84;5070906;28;20053;-72
2022/10/10 10:34:13;;;;;;;7.07;4.90;;;;;;;16.17;63.57;99078.59;5070164;28;20505;-72
2022/10/10 10:36:48;;;;;;;7.30;5.32;;;;;;;16.27;63.66;99083.84;5069481;28;20028;-73
2022/10/10 10:39:22;;;;;;;7.72;5.00;;;;;;;16.36;63.30;99076.41;5062599;28;20114;-70
2022/10/10 10:42:01;;;;;;;8.52;6.07;;;;;;;16.46;63.41;99074.47;5082991;28;20103;-69
2022/10/10 10:44:38;;;;;;;7.90;5.35;;;;;;;16.56;62.87;99071.41;5070423;28;20033;-69
2022/10/10 10:47:25;;;;;;;7.43;4.80;;;;;;;16.65;62.39;99068.69;5062251;28;20103;-70
2022/10/10 10:50:04;;;;;;;7.03;4.68;;;;;;;16.68;61.90;99065.25;5069385;28;20116;-70
2022/10/10 10:52:39;;;;;;;5.28;4.32;;;;;;;16.72;60.92;99062.66;5062171;28;20068;-70
2022/10/10 10:55:34;;;;;;;8.20;4.30;;;;;;;16.78;61.30;99055.81;5057934;28;20478;-70
2022/10/10 10:58:05;;;;;;;7.53;4.10;;;;;;;16.86;60.61;99057.81;5069178;28;20478;-69
2022/10/10 11:00:41;;;;;;;7.47;4.60;;;;;;;16.90;60.61;99050.47;5068296;28;20111;-70
2022/10/10 11:03:20;;;;;;;7.18;4.45;;;;;;;16.98;60.56;99048.03;5073656;28;20028;-71
2022/10/10 11:05:55;;;;;;;7.05;4.45;;;;;;;17.04;60.40;99055.91;5068547;28;20016;-70
2022/10/10 11:08:46;;;;;;;5.68;4.00;;;;;;;17.12;59.97;99048.72;5066745;28;20043;-71
2022/10/10 11:11:37;;;;;;;6.88;4.50;;;;;;;17.18;59.66;99041.88;5054623;28;20175;-70
2022/10/10 11:14:38;;;;;;;6.18;3.83;;;;;;;17.23;58.70;99043.66;5050935;28;20474;-72
2022/10/10 11:17:18;;;;;;;5.55;4.32;;;;;;;17.25;58.71;99030.28;5051249;28;20386;-70
2022/10/10 11:19:56;;;;;;;7.18;5.35;;;;;;;17.29;58.78;99033.25;5065728;28;20096;-69
2022/10/10 11:22:31;;;;;;;7.80;5.03;;;;;;;17.38;59.08;99028.47;5071052;28;20045;-70
2022/10/10 11:25:18;;;;;;;8.43;5.20;;;;;;;17.47;58.29;99025.72;5070329;28;20033;-69
2022/10/10 11:27:52;;;;;;;9.38;4.80;;;;;;;17.53;58.17;99016.88;5069913;28;20487;-69
2022/10/10 11:30:23;;;;;;;6.70;4.82;;;;;;;17.58;58.27;99012.31;5074369;28;20095;-70
2022/10/10 11:33:13;;;;;;;7.70;4.97;;;;;;;17.64;58.33;99016.53;5053292;28;20482;-70
2022/10/10 11:35:47;;;;;;;;;;;;;;;17.72;58.38;99010.16;5060709;28;20074;-69
2022/10/10 11:38:43;;;;;;;9.52;7.15;;;;;;;17.80;58.05;99014.06;5078314;28;19918;-70
2022/10/10 11:41:20;;;;;;;8.45;5.00;;;;;;;17.87;58.05;99003.25;5074086;28;20040;-71
2022/10/10 11:44:00;;;;;;;9.82;5.72;;;;;;;17.94;57.19;99008.28;5073116;28;20056;-70